Time;durP1;ratioP1;P1;durP2;ratioP2;P2;SDS_P1;SDS_P2;PMS_P1;PMS_P2;Temp;Humidity;BMP_temperature;BMP_pressure;BME280_temperature;BME280_humidity;BME280_pressure;Samples;Min_cycle;Max_cycle;Signal;HPM_P1;HPM_P2
2021/12/01 00:01:17;;;;;;;8.20;8.00;;;5.10;99.90;;;;;;5095663;28;20283;-79
2021/12/01 00:03:45;;;;;;;8.30;8.10;;;5.10;99.90;;;;;;5093216;28;20236;-80
2021/12/01 00:06:12;;;;;;;8.00;7.80;;;5.20;99.90;;;;;;5106137;28;20237;-79
2021/12/01 00:08:40;;;;;;;8.23;8.03;;;5.20;99.90;;;;;;5119071;27;20278;-79
2021/12/01 00:11:08;;;;;;;8.77;8.57;;;5.20;99.90;;;;;;5118734;28;20300;-79
2021/12/01 00:13:36;;;;;;;8.50;8.30;;;5.20;99.90;;;;;;5119997;28;20229;-79
2021/12/01 00:16:07;;;;;;;8.63;8.43;;;5.20;99.90;;;;;;5100844;28;20265;-79
2021/12/01 00:18:37;;;;;;;8.60;8.40;;;5.20;99.90;;;;;;5087006;28;20323;-79
2021/12/01 00:21:05;;;;;;;8.40;8.20;;;5.20;99.90;;;;;;5096951;28;20283;-79
2021/12/01 00:23:32;;;;;;;8.60;8.40;;;5.20;99.90;;;;;;5104913;28;20229;-80
2021/12/01 00:26:00;;;;;;;8.87;8.67;;;5.20;99.90;;;;;;5099310;28;20279;-79
2021/12/01 00:28:28;;;;;;;9.00;8.70;;;5.20;99.90;;;;;;5106921;28;20258;-77
2021/12/01 00:30:58;;;;;;;8.70;8.50;;;5.20;99.90;;;;;;5096561;28;20238;-79
2021/12/01 00:33:26;;;;;;;8.73;8.53;;;5.20;99.90;;;;;;5078072;28;20234;-76
2021/12/01 00:35:57;;;;;;;8.50;8.30;;;5.10;99.90;;;;;;5077535;28;20265;-80
2021/12/01 00:38:26;;;;;;;8.60;8.40;;;5.00;99.90;;;;;;5078250;28;20250;-77
2021/12/01 00:40:56;;;;;;;8.43;8.23;;;4.90;99.90;;;;;;5078341;28;20230;-78
2021/12/01 00:43:25;;;;;;;8.70;8.50;;;4.90;99.90;;;;;;5078412;28;20231;-77
2021/12/01 00:45:56;;;;;;;8.50;8.30;;;4.80;99.90;;;;;;5115988;28;20272;-77
2021/12/01 00:48:25;;;;;;;8.50;8.30;;;4.70;99.90;;;;;;5119076;28;20255;-77
2021/12/01 00:50:55;;;;;;;8.60;8.40;;;4.70;99.90;;;;;;5117362;28;20326;-77
2021/12/01 00:53:23;;;;;;;8.20;8.00;;;4.60;99.90;;;;;;5118574;28;20232;-77
2021/12/01 00:55:51;;;;;;;8.27;8.07;;;4.60;99.90;;;;;;5121118;27;20272;-78
2021/12/01 00:58:18;;;;;;;8.23;8.03;;;4.50;99.90;;;;;;5118411;28;20232;-78
2021/12/01 01:00:48;;;;;;;8.10;7.90;;;4.50;99.90;;;;;;5102261;28;20256;-78
2021/12/01 01:03:17;;;;;;;8.13;7.93;;;4.50;99.90;;;;;;5097789;28;20230;-77
2021/12/01 01:05:45;;;;;;;8.10;7.90;;;4.50;99.90;;;;;;5116137;28;20286;-78
2021/12/01 01:08:15;;;;;;;8.40;8.20;;;4.40;99.90;;;;;;5119528;28;20266;-78
2021/12/01 01:11:08;;;;;;;8.23;8.03;;;4.40;99.90;;;;;;5118175;28;20259;-78
2021/12/01 01:16:26;;;;;;;8.07;7.87;;;4.40;99.90;;;;;;5124060;27;20236;-79
2021/12/01 01:18:59;;;;;;;8.30;8.10;;;4.40;99.90;;;;;;5118243;27;20271;-79
2021/12/01 01:21:29;;;;;;;8.40;8.20;;;4.40;99.90;;;;;;5121642;28;20631;-79
2021/12/01 01:23:59;;;;;;;8.37;8.17;;;4.30;99.90;;;;;;5126340;28;20221;-79
2021/12/01 01:26:28;;;;;;;8.27;8.07;;;4.30;99.90;;;;;;5127626;27;20236;-80
2021/12/01 01:28:56;;;;;;;8.33;8.13;;;4.30;99.90;;;;;;5120613;28;20221;-79
2021/12/01 01:31:24;;;;;;;8.50;8.30;;;4.30;99.90;;;;;;5118483;28;20236;-80
2021/12/01 01:33:52;;;;;;;8.30;8.10;;;4.30;99.90;;;;;;5118698;28;20253;-77
2021/12/01 01:36:20;;;;;;;8.20;8.00;;;4.30;99.90;;;;;;5118433;27;20804;-79
2021/12/01 01:38:48;;;;;;;8.13;7.93;;;4.30;99.90;;;;;;5124840;27;20236;-79
2021/12/01 01:41:19;;;;;;;8.30;8.10;;;4.30;99.90;;;;;;5123325;28;20225;-77
2021/12/01 01:43:50;;;;;;;8.10;7.90;;;4.30;99.90;;;;;;5130361;28;20217;-77
2021/12/01 01:46:18;;;;;;;8.27;8.07;;;4.30;99.90;;;;;;5123441;28;20290;-77
2021/12/01 01:48:48;;;;;;;8.20;8.00;;;4.30;99.90;;;;;;5121453;27;20229;-78
2021/12/01 01:51:18;;;;;;;8.40;8.20;;;4.30;99.90;;;;;;5119161;27;21145;-77
2021/12/01 01:53:47;;;;;;;8.20;8.00;;;4.30;99.90;;;;;;5120252;27;20235;-77
2021/12/01 01:56:17;;;;;;;8.20;8.00;;;4.30;99.90;;;;;;5120513;28;20282;-77
2021/12/01 01:58:46;;;;;;;8.17;7.97;;;4.30;99.90;;;;;;5119623;28;20225;-78
2021/12/01 02:01:29;;;;;;;8.50;8.30;;;4.30;99.90;;;;;;5116283;28;20289;-78
2021/12/01 02:03:57;;;;;;;7.90;7.70;;;4.40;99.90;;;;;;5101986;28;20228;-78
2021/12/01 02:06:25;;;;;;;8.10;7.90;;;4.40;99.90;;;;;;5096523;28;20237;-77
2021/12/01 02:08:56;;;;;;;8.00;7.80;;;4.40;99.90;;;;;;5101100;28;20694;-78
2021/12/01 02:11:27;;;;;;;7.90;7.70;;;4.40;99.90;;;;;;5094236;28;20233;-77
2021/12/01 02:13:55;;;;;;;8.20;8.00;;;4.50;99.90;;;;;;5098134;28;20253;-77
2021/12/01 02:16:24;;;;;;;8.20;8.00;;;4.50;99.90;;;;;;5097690;28;20257;-78
2021/12/01 02:18:52;;;;;;;8.37;8.17;;;4.50;99.90;;;;;;5100151;28;20256;-76
2021/12/01 02:21:27;;;;;;;8.23;8.03;;;4.50;99.90;;;;;;5101830;28;20225;-78
2021/12/01 02:23:56;;;;;;;8.37;8.17;;;4.50;99.90;;;;;;5117339;28;20707;-78
2021/12/01 02:26:25;;;;;;;8.13;7.93;;;4.50;99.90;;;;;;5118525;28;20313;-76
2021/12/01 02:28:57;;;;;;;8.33;8.13;;;4.50;99.90;;;;;;5118220;28;20253;-78
2021/12/01 02:31:28;;;;;;;8.07;7.87;;;4.50;99.90;;;;;;5116824;27;20247;-78
2021/12/01 02:33:57;;;;;;;8.20;8.00;;;4.50;99.90;;;;;;5124520;28;20205;-78
2021/12/01 02:36:26;;;;;;;8.43;8.23;;;4.50;99.90;;;;;;5085592;28;20245;-78
2021/12/01 02:38:54;;;;;;;8.50;8.30;;;4.50;99.90;;;;;;5076247;28;20242;-78
2021/12/01 02:41:29;;;;;;;8.20;8.00;;;4.50;99.90;;;;;;5075692;28;20273;-78
2021/12/01 02:43:58;;;;;;;8.57;8.37;;;4.50;99.90;;;;;;5075935;28;20278;-78
2021/12/01 02:46:26;;;;;;;8.40;8.20;;;4.50;99.90;;;;;;5076298;28;20315;-77
2021/12/01 02:48:55;;;;;;;8.20;8.00;;;4.60;99.90;;;;;;5076373;28;20288;-77
2021/12/01 02:51:27;;;;;;;7.90;7.70;;;4.60;99.90;;;;;;5076131;28;20234;-77
2021/12/01 02:53:56;;;;;;;8.23;8.03;;;4.60;99.90;;;;;;5076317;28;20243;-77
2021/12/01 02:56:25;;;;;;;8.10;7.90;;;4.60;99.90;;;;;;5081741;28;20268;-77
2021/12/01 02:58:53;;;;;;;8.20;8.00;;;4.60;99.90;;;;;;5115564;28;20228;-77
2021/12/01 03:01:23;;;;;;;8.27;8.07;;;4.60;99.90;;;;;;5115072;27;20237;-77
2021/12/01 03:03:52;;;;;;;8.10;7.90;;;4.60;99.90;;;;;;5116796;28;20244;-77
2021/12/01 03:06:25;;;;;;;8.07;7.87;;;4.60;99.90;;;;;;5116359;27;20237;-78
2021/12/01 03:08:53;;;;;;;8.00;7.80;;;4.60;99.90;;;;;;5116427;28;20225;-78
2021/12/01 03:11:22;;;;;;;8.20;8.00;;;4.60;99.90;;;;;;5115781;27;20256;-78
2021/12/01 03:13:49;;;;;;;7.87;7.67;;;4.60;99.90;;;;;;5116682;28;20333;-76
2021/12/01 03:16:17;;;;;;;8.07;7.87;;;4.60;99.90;;;;;;5115729;28;20272;-78
2021/12/01 03:18:45;;;;;;;7.93;7.73;;;4.60;99.90;;;;;;5116369;28;20310;-78
2021/12/01 03:21:13;;;;;;;8.03;7.83;;;4.70;99.90;;;;;;5118210;28;20260;-78
2021/12/01 03:23:41;;;;;;;8.10;7.90;;;4.70;99.90;;;;;;5117123;28;20224;-78
2021/12/01 03:26:09;;;;;;;8.13;7.93;;;4.70;99.90;;;;;;5115751;28;20267;-78
2021/12/01 03:28:38;;;;;;;8.10;7.90;;;4.70;99.90;;;;;;5116082;28;20229;-78
2021/12/01 03:31:06;;;;;;;8.17;7.97;;;4.70;99.90;;;;;;5115421;28;20233;-77
2021/12/01 03:33:34;;;;;;;8.20;8.00;;;4.70;99.90;;;;;;5100020;28;20258;-78
2021/12/01 03:36:01;;;;;;;8.10;7.90;;;4.80;99.90;;;;;;5099203;28;20773;-78
2021/12/01 03:38:29;;;;;;;7.80;7.60;;;4.70;99.90;;;;;;5115980;28;20228;-78
2021/12/01 03:40:58;;;;;;;8.17;7.97;;;4.70;99.90;;;;;;5115766;28;20237;-78
2021/12/01 03:43:27;;;;;;;8.10;7.90;;;4.70;99.90;;;;;;5118220;27;20260;-77
2021/12/01 03:45:56;;;;;;;7.97;7.77;;;4.80;99.90;;;;;;5119041;28;20263;-78
2021/12/01 03:48:24;;;;;;;8.03;7.83;;;4.80;99.90;;;;;;5119828;27;20224;-78
2021/12/01 03:50:54;;;;;;;7.87;7.67;;;4.70;99.90;;;;;;5118559;28;20233;-77
2021/12/01 03:53:23;;;;;;;8.07;7.87;;;4.70;99.90;;;;;;5119284;28;20240;-78
2021/12/01 03:55:52;;;;;;;7.90;7.70;;;4.70;99.90;;;;;;5118503;28;20281;-78
2021/12/01 03:58:20;;;;;;;8.00;7.80;;;4.80;99.90;;;;;;5119583;28;20248;-77
2021/12/01 04:00:48;;;;;;;7.90;7.70;;;4.80;99.90;;;;;;5118064;28;20233;-77
2021/12/01 04:03:18;;;;;;;8.20;8.00;;;4.80;99.90;;;;;;5120339;27;20233;-78
2021/12/01 04:05:45;;;;;;;8.03;7.83;;;4.80;99.90;;;;;;5124127;28;20274;-77
2021/12/01 04:08:14;;;;;;;8.07;7.87;;;4.80;99.90;;;;;;5124742;28;20228;-77
2021/12/01 04:10:41;;;;;;;7.90;7.70;;;4.80;99.90;;;;;;5128335;27;20232;-77
2021/12/01 04:13:09;;;;;;;7.90;7.70;;;4.80;99.90;;;;;;5123871;28;20213;-78
2021/12/01 04:15:36;;;;;;;7.93;7.73;;;4.80;99.90;;;;;;5125845;28;20248;-79
2021/12/01 04:18:04;;;;;;;7.80;7.60;;;4.80;99.90;;;;;;5121984;28;20263;-78
2021/12/01 04:20:34;;;;;;;7.90;7.70;;;4.80;99.90;;;;;;5121107;28;20309;-78
2021/12/01 04:23:01;;;;;;;7.87;7.67;;;4.80;99.90;;;;;;5124609;28;20301;-78
2021/12/01 04:25:29;;;;;;;7.80;7.60;;;4.80;99.90;;;;;;5126698;27;20236;-77
2021/12/01 04:27:57;;;;;;;8.03;7.83;;;4.80;99.90;;;;;;5124484;28;20232;-79
2021/12/01 04:30:25;;;;;;;7.67;7.47;;;4.80;99.90;;;;;;5120419;28;20233;-79
2021/12/01 04:32:54;;;;;;;7.90;7.70;;;4.80;99.90;;;;;;5121455;28;20221;-77
2021/12/01 04:35:24;;;;;;;7.83;7.63;;;4.80;99.90;;;;;;5119888;27;20252;-78
2021/12/01 04:37:55;;;;;;;8.00;7.80;;;4.80;99.90;;;;;;5120225;28;20243;-78
2021/12/01 04:40:23;;;;;;;7.80;7.60;;;4.80;99.90;;;;;;5119785;28;20225;-78
2021/12/01 04:42:51;;;;;;;8.00;7.80;;;4.80;99.90;;;;;;5119931;28;20232;-78
2021/12/01 04:45:19;;;;;;;7.83;7.63;;;4.80;99.90;;;;;;5119561;27;20287;-79
2021/12/01 04:47:51;;;;;;;7.57;7.37;;;4.80;99.90;;;;;;5119504;28;20287;-79
2021/12/01 04:50:21;;;;;;;7.67;7.47;;;4.80;99.90;;;;;;5119272;27;20221;-78
2021/12/01 04:52:49;;;;;;;7.90;7.70;;;4.80;99.90;;;;;;5119984;27;20217;-79
2021/12/01 04:55:18;;;;;;;7.60;7.40;;;4.80;99.90;;;;;;5118388;28;20259;-78
2021/12/01 04:57:48;;;;;;;7.63;7.43;;;4.90;99.90;;;;;;5119198;28;20237;-79
2021/12/01 05:00:19;;;;;;;7.63;7.43;;;4.90;99.90;;;;;;5117638;27;20282;-78
2021/12/01 05:02:47;;;;;;;7.70;7.50;;;4.90;99.90;;;;;;5124029;27;20205;-78
2021/12/01 05:05:15;;;;;;;7.57;7.37;;;4.90;99.90;;;;;;5123218;28;20312;-79
2021/12/01 05:07:43;;;;;;;8.00;7.80;;;4.90;99.90;;;;;;5121600;28;20275;-78
2021/12/01 05:10:11;;;;;;;7.70;7.50;;;4.90;99.90;;;;;;5120257;28;20233;-78
2021/12/01 05:12:40;;;;;;;7.63;7.43;;;5.00;99.90;;;;;;5120618;28;20235;-79
2021/12/01 05:15:12;;;;;;;7.80;7.60;;;5.00;99.90;;;;;;5119403;27;20229;-78
2021/12/01 05:17:40;;;;;;;7.90;7.70;;;5.00;99.90;;;;;;5119291;27;20237;-79
2021/12/01 05:20:11;;;;;;;7.90;7.70;;;5.00;99.90;;;;;;5118781;27;20294;-79
2021/12/01 05:22:39;;;;;;;7.77;7.57;;;5.00;99.90;;;;;;5119055;28;20225;-79
2021/12/01 05:25:08;;;;;;;7.80;7.60;;;5.10;99.90;;;;;;5118884;28;20229;-79
2021/12/01 05:27:35;;;;;;;7.73;7.53;;;5.10;99.90;;;;;;5120302;28;20292;-78
2021/12/01 05:30:06;;;;;;;7.90;7.70;;;5.10;99.90;;;;;;5125944;28;20221;-78
2021/12/01 05:32:34;;;;;;;7.63;7.43;;;5.10;99.90;;;;;;5124386;28;20225;-79
2021/12/01 05:35:02;;;;;;;7.47;7.27;;;5.20;99.90;;;;;;5121138;28;20278;-79
2021/12/01 05:37:29;;;;;;;7.53;7.33;;;5.20;99.90;;;;;;5119979;28;20263;-77
2021/12/01 05:39:57;;;;;;;7.60;7.40;;;5.20;99.90;;;;;;5119975;28;20314;-78
2021/12/01 05:42:25;;;;;;;7.53;7.33;;;5.20;99.90;;;;;;5120220;28;20220;-78
2021/12/01 05:44:52;;;;;;;7.60;7.40;;;5.20;99.90;;;;;;5120284;28;20236;-79
2021/12/01 05:47:21;;;;;;;7.80;7.60;;;5.20;99.90;;;;;;5119970;28;20237;-79
2021/12/01 05:49:49;;;;;;;7.57;7.37;;;5.20;99.90;;;;;;5119638;28;20260;-78
2021/12/01 05:52:18;;;;;;;7.40;7.20;;;5.20;99.90;;;;;;5120058;28;20267;-79
2021/12/01 05:54:50;;;;;;;7.67;7.47;;;5.20;99.90;;;;;;5120779;28;20255;-78
2021/12/01 05:57:18;;;;;;;7.57;7.37;;;5.20;99.90;;;;;;5137525;22;20224;-81
2021/12/01 05:59:47;;;;;;;7.80;7.60;;;5.20;99.90;;;;;;5112024;27;20226;-81
2021/12/01 06:02:16;;;;;;;7.67;7.47;;;5.20;99.90;;;;;;5107792;28;20225;-82
2021/12/01 06:07:33;;;;;;;7.57;7.37;;;5.30;99.90;;;;;;5115256;28;20225;-81
2021/12/01 06:10:03;;;;;;;7.80;7.60;;;5.30;99.90;;;;;;5122186;28;20233;-82
2021/12/01 06:12:32;;;;;;;7.70;7.50;;;5.30;99.90;;;;;;5120842;28;20280;-82
2021/12/01 06:15:03;;;;;;;7.90;7.70;;;5.30;99.90;;;;;;5125888;27;20231;-82
2021/12/01 06:17:33;;;;;;;8.20;8.00;;;5.30;99.90;;;;;;5135617;27;20335;-82
2021/12/01 06:20:11;;;;;;;7.90;7.70;;;5.30;99.90;;;;;;5123855;28;20224;-82
2021/12/01 06:22:40;;;;;;;7.87;7.67;;;5.30;99.90;;;;;;5124101;28;20220;-81
2021/12/01 06:25:10;;;;;;;8.00;7.80;;;5.30;99.90;;;;;;5140926;28;20236;-82
2021/12/01 06:27:40;;;;;;;8.13;7.93;;;5.30;99.90;;;;;;5141841;28;20552;-83
2021/12/01 06:30:11;;;;;;;8.27;8.07;;;5.40;99.90;;;;;;5142014;28;20204;-82
2021/12/01 06:32:39;;;;;;;8.17;7.97;;;5.40;99.90;;;;;;5141729;27;20232;-82
2021/12/01 06:35:17;;;;;;;8.23;8.03;;;5.40;99.90;;;;;;5141719;27;20235;-83
2021/12/01 06:37:48;;;;;;;8.50;8.30;;;5.40;99.90;;;;;;5141810;27;20232;-82
2021/12/01 06:40:17;;;;;;;8.65;8.45;;;5.40;99.90;;;;;;5139409;28;20392;-84
2021/12/01 06:42:45;;;;;;;8.37;8.17;;;5.50;99.90;;;;;;5141413;27;20205;-83
2021/12/01 06:45:16;;;;;;;8.37;8.17;;;5.50;99.90;;;;;;5132332;27;20739;-82
2021/12/01 06:47:44;;;;;;;8.33;8.13;;;5.50;99.90;;;;;;5125771;28;20269;-83
2021/12/01 06:50:16;;;;;;;8.20;8.00;;;5.60;99.90;;;;;;5125734;28;20225;-84
2021/12/01 06:52:44;;;;;;;7.97;7.77;;;5.60;99.90;;;;;;5132304;28;20228;-82
2021/12/01 06:55:15;;;;;;;8.13;7.93;;;5.60;99.90;;;;;;5135898;28;20208;-83
2021/12/01 06:57:42;;;;;;;9.10;8.80;;;5.60;99.90;;;;;;5130828;28;20244;-82
2021/12/01 07:00:14;;;;;;;8.90;8.70;;;5.60;99.90;;;;;;5140541;27;20229;-84
2021/12/01 07:02:41;;;;;;;9.20;8.90;;;5.60;99.90;;;;;;5139991;27;20208;-85
2021/12/01 07:05:11;;;;;;;9.10;8.80;;;5.60;99.90;;;;;;5131863;27;20289;-83
2021/12/01 07:07:42;;;;;;;9.13;8.83;;;5.60;99.90;;;;;;5122220;28;20331;-83
2021/12/01 07:10:18;;;;;;;8.93;8.70;;;5.70;99.90;;;;;;5120967;28;20228;-83
2021/12/01 07:12:46;;;;;;;9.30;9.00;;;5.70;99.90;;;;;;5121806;28;20224;-83
2021/12/01 07:15:18;;;;;;;8.77;8.57;;;5.70;99.90;;;;;;5120651;28;20282;-83
2021/12/01 07:17:45;;;;;;;9.20;8.90;;;5.80;99.90;;;;;;5125031;27;20243;-83
2021/12/01 07:20:15;;;;;;;9.20;8.90;;;5.80;99.90;;;;;;5135258;27;20266;-83
2021/12/01 07:22:47;;;;;;;9.27;8.97;;;5.70;99.90;;;;;;5148927;27;20275;-83
2021/12/01 07:25:16;;;;;;;9.40;9.10;;;5.80;99.90;;;;;;5149077;27;20234;-84
2021/12/01 07:27:44;;;;;;;9.30;9.00;;;5.80;99.90;;;;;;5161905;27;20226;-85
2021/12/01 07:30:13;;;;;;;9.40;9.10;;;5.80;99.90;;;;;;5163943;27;20207;-85
2021/12/01 07:32:54;;;;;;;9.50;9.20;;;5.80;99.90;;;;;;5159532;27;20234;-85
2021/12/01 07:35:22;;;;;;;9.57;9.27;;;5.80;99.90;;;;;;5156830;27;20251;-84
2021/12/01 07:37:53;;;;;;;9.33;9.03;;;5.80;99.90;;;;;;5147111;27;20399;-85
2021/12/01 07:40:21;;;;;;;9.30;9.00;;;5.90;99.90;;;;;;5129926;27;20225;-83
2021/12/01 07:42:49;;;;;;;9.07;8.77;;;5.80;99.90;;;;;;5125237;28;20229;-82
2021/12/01 07:45:19;;;;;;;9.10;8.80;;;5.90;99.90;;;;;;5124271;28;20325;-82
2021/12/01 07:47:48;;;;;;;8.73;8.53;;;5.90;99.90;;;;;;5124591;28;20236;-82
2021/12/01 07:50:18;;;;;;;9.20;8.90;;;5.90;99.90;;;;;;5124312;28;20236;-84
2021/12/01 07:52:47;;;;;;;9.40;9.10;;;5.90;99.90;;;;;;5125216;28;20228;-83
2021/12/01 07:55:25;;;;;;;9.40;9.10;;;5.90;99.90;;;;;;5125979;28;20232;-84
2021/12/01 07:57:55;;;;;;;9.43;9.13;;;5.90;99.90;;;;;;5128783;28;20262;-83
2021/12/01 08:00:23;;;;;;;9.50;9.20;;;5.90;99.90;;;;;;5124683;28;20232;-84
2021/12/01 08:02:53;;;;;;;9.50;9.20;;;5.90;99.90;;;;;;5124989;28;20251;-83
2021/12/01 08:05:22;;;;;;;9.40;9.10;;;6.00;99.90;;;;;;5124532;28;20236;-83
2021/12/01 08:07:51;;;;;;;9.37;9.07;;;6.00;99.90;;;;;;5124718;28;20289;-84
2021/12/01 08:10:30;;;;;;;9.27;8.97;;;6.00;99.90;;;;;;5124898;28;20232;-83
2021/12/01 08:13:00;;;;;;;9.47;9.17;;;6.00;99.90;;;;;;5124539;28;20239;-84
2021/12/01 08:15:30;;;;;;;9.50;9.20;;;6.00;99.90;;;;;;5124739;28;20225;-82
2021/12/01 08:18:00;;;;;;;9.20;8.90;;;6.10;99.90;;;;;;5123741;28;20233;-82
2021/12/01 08:20:30;;;;;;;9.40;9.10;;;6.10;99.90;;;;;;5122504;28;20255;-82
2021/12/01 08:22:59;;;;;;;9.50;9.20;;;6.10;99.90;;;;;;5125995;28;20229;-82
2021/12/01 08:25:38;;;;;;;9.30;9.00;;;6.10;99.90;;;;;;5126987;28;20228;-83
2021/12/01 08:28:06;;;;;;;9.10;8.80;;;6.10;99.90;;;;;;5126551;27;20243;-83
2021/12/01 08:30:36;;;;;;;9.30;9.00;;;6.20;99.90;;;;;;5126173;28;20253;-83
2021/12/01 08:33:06;;;;;;;8.90;8.70;;;6.20;99.90;;;;;;5128468;28;20243;-84
2021/12/01 08:35:35;;;;;;;9.20;8.90;;;6.20;99.90;;;;;;5127174;28;20232;-82
2021/12/01 08:38:04;;;;;;;9.33;9.03;;;6.30;99.90;;;;;;5126267;28;20290;-81
2021/12/01 08:50:53;;;;;;;8.87;8.67;;;6.50;99.90;;;;;;5055175;28;20237;-86
2021/12/01 08:53:21;;;;;;;8.50;8.30;;;6.60;99.90;;;;;;5125825;28;20231;-82
2021/12/01 08:55:58;;;;;;;8.80;8.60;;;6.70;99.90;;;;;;5145202;27;20220;-83
2021/12/01 08:58:26;;;;;;;8.70;8.50;;;6.80;99.90;;;;;;5145055;27;20275;-82
2021/12/01 09:01:05;;;;;;;8.60;8.40;;;6.80;99.90;;;;;;5137001;27;20711;-83
2021/12/01 09:03:34;;;;;;;8.53;8.33;;;6.90;99.90;;;;;;5137697;27;20237;-83
2021/12/01 09:06:05;;;;;;;8.60;8.40;;;6.90;99.90;;;;;;5124527;28;20311;-83
2021/12/01 09:08:42;;;;;;;8.77;8.57;;;7.00;99.90;;;;;;5142628;27;20232;-83
2021/12/01 09:11:21;;;;;;;8.80;8.60;;;7.00;99.90;;;;;;5158509;27;20223;-83
2021/12/01 09:13:59;;;;;;;8.40;8.20;;;7.10;99.90;;;;;;5161561;27;20230;-83
2021/12/01 09:16:27;;;;;;;8.60;8.40;;;7.20;99.90;;;;;;5161086;27;20208;-83
2021/12/01 09:19:06;;;;;;;8.40;8.20;;;7.30;99.90;;;;;;5162044;27;20296;-82
2021/12/01 09:21:35;;;;;;;8.40;8.20;;;7.30;99.90;;;;;;5160973;27;20219;-85
2021/12/01 09:24:08;;;;;;;8.53;8.33;;;7.40;99.90;;;;;;5152188;27;20223;-86
2021/12/01 09:26:44;;;;;;;8.57;8.37;;;7.40;99.90;;;;;;5147433;27;20282;-82
2021/12/01 09:29:12;;;;;;;8.77;8.57;;;7.40;99.90;;;;;;5154717;27;20242;-82
2021/12/01 09:31:42;;;;;;;8.80;8.60;;;7.40;99.90;;;;;;5151713;27;20228;-83
2021/12/01 09:34:11;;;;;;;8.60;8.40;;;7.50;99.90;;;;;;5147828;27;20258;-82
2021/12/01 09:36:40;;;;;;;8.40;8.20;;;7.50;99.90;;;;;;5147653;27;20236;-82
2021/12/01 09:39:09;;;;;;;8.83;8.63;;;7.50;99.90;;;;;;5146205;27;20228;-82
2021/12/01 09:41:48;;;;;;;8.90;8.70;;;7.50;99.90;;;;;;5144443;27;20232;-82
2021/12/01 09:44:18;;;;;;;9.10;8.80;;;7.50;99.90;;;;;;5145426;27;20285;-82
2021/12/01 09:46:48;;;;;;;8.83;8.63;;;7.50;99.90;;;;;;5145142;27;20246;-81
2021/12/01 09:49:16;;;;;;;8.73;8.53;;;7.60;99.90;;;;;;5144625;27;20254;-83
2021/12/01 09:51:46;;;;;;;9.30;9.00;;;7.60;99.90;;;;;;5145703;27;20236;-82
2021/12/01 09:54:15;;;;;;;8.80;8.60;;;7.70;99.90;;;;;;5144787;27;20231;-81
2021/12/01 09:56:56;;;;;;;9.10;8.80;;;7.70;99.90;;;;;;5140786;27;20254;-83
2021/12/01 09:59:24;;;;;;;8.90;8.70;;;7.70;99.90;;;;;;5130033;27;20258;-83
2021/12/01 10:01:53;;;;;;;8.90;8.70;;;7.80;99.90;;;;;;5133328;27;20255;-83
2021/12/01 10:04:24;;;;;;;8.60;8.40;;;7.80;99.90;;;;;;5131029;27;20216;-82
2021/12/01 10:07:14;;;;;;;8.67;8.47;;;7.80;99.90;;;;;;5144794;27;20239;-82
2021/12/01 10:09:46;;;;;;;8.50;8.30;;;7.80;99.90;;;;;;5144674;27;20232;-82
2021/12/01 10:12:25;;;;;;;8.80;8.60;;;7.80;99.90;;;;;;5127393;27;20228;-79
2021/12/01 10:14:58;;;;;;;8.70;8.50;;;7.90;99.90;;;;;;5124990;27;20282;-82
2021/12/01 10:17:35;;;;;;;8.57;8.37;;;7.90;99.90;;;;;;5123492;28;20229;-82
2021/12/01 10:20:15;;;;;;;8.50;8.30;;;7.90;99.90;;;;;;5122460;28;20300;-82
2021/12/01 10:23:09;;;;;;;8.43;8.23;;;7.90;99.90;;;;;;5124157;27;20293;-81
2021/12/01 10:25:39;;;;;;;8.70;8.50;;;7.90;99.90;;;;;;5122726;27;20302;-82
2021/12/01 10:28:18;;;;;;;8.50;8.30;;;7.90;99.90;;;;;;5124460;28;20216;-80
2021/12/01 10:30:48;;;;;;;8.63;8.43;;;8.00;99.90;;;;;;5123346;27;20228;-83
2021/12/01 10:33:18;;;;;;;8.50;8.30;;;8.00;99.90;;;;;;5125962;28;20228;-84
2021/12/01 10:35:46;;;;;;;8.00;7.80;;;8.10;99.90;;;;;;5126318;28;20228;-83
2021/12/01 10:38:14;;;;;;;8.20;8.00;;;8.10;99.90;;;;;;5123736;28;20279;-82
2021/12/01 10:40:44;;;;;;;8.50;8.30;;;8.10;99.90;;;;;;5124335;28;20225;-83
2021/12/01 10:43:24;;;;;;;8.40;8.20;;;8.20;99.90;;;;;;5124229;28;20413;-83
2021/12/01 10:45:51;;;;;;;8.40;8.20;;;8.20;99.90;;;;;;5124236;28;20224;-83
2021/12/01 10:48:24;;;;;;;8.47;8.27;;;8.20;99.90;;;;;;5125227;28;20225;-83
2021/12/01 10:50:52;;;;;;;8.50;8.30;;;8.30;99.90;;;;;;5140971;27;20247;-84
2021/12/01 10:53:23;;;;;;;8.60;8.40;;;8.30;99.90;;;;;;5141936;27;20201;-83
2021/12/01 10:55:59;;;;;;;8.80;8.60;;;8.40;99.90;;;;;;5141826;27;20213;-85
2021/12/01 10:58:37;;;;;;;8.67;8.47;;;8.50;99.90;;;;;;5141557;27;20215;-84
2021/12/01 11:01:08;;;;;;;8.73;8.53;;;8.50;99.90;;;;;;5141301;27;20228;-85
2021/12/01 11:03:45;;;;;;;8.60;8.40;;;8.60;99.90;;;;;;5141507;27;20276;-87
2021/12/01 11:06:19;;;;;;;8.50;8.30;;;8.60;99.90;;;;;;5141235;27;20220;-84
2021/12/01 11:08:55;;;;;;;8.73;8.53;;;8.60;99.90;;;;;;5141649;27;20208;-83
2021/12/01 11:11:30;;;;;;;8.70;8.50;;;8.70;99.90;;;;;;5141070;27;20213;-84
2021/12/01 11:14:11;;;;;;;8.40;8.20;;;8.60;99.90;;;;;;5140305;27;20239;-83
2021/12/01 11:16:47;;;;;;;8.70;8.50;;;8.50;99.90;;;;;;5135247;27;20232;-83
2021/12/01 11:19:16;;;;;;;8.33;8.13;;;8.50;99.90;;;;;;5131938;28;20315;-83
2021/12/01 11:21:46;;;;;;;8.70;8.50;;;8.40;99.90;;;;;;5130680;28;20235;-82
2021/12/01 11:24:15;;;;;;;8.57;8.37;;;8.20;99.90;;;;;;5130405;28;20231;-83
2021/12/01 11:26:47;;;;;;;8.80;8.60;;;8.10;99.90;;;;;;5128000;28;20225;-84
2021/12/01 11:29:26;;;;;;;9.20;8.90;;;8.10;99.90;;;;;;5127518;28;20229;-85
2021/12/01 11:31:54;;;;;;;8.40;8.20;;;8.00;99.90;;;;;;5146406;27;20236;-86
2021/12/01 11:34:22;;;;;;;8.70;8.50;;;8.10;99.90;;;;;;5132937;27;20231;-85
2021/12/01 11:36:53;;;;;;;8.93;8.73;;;8.00;99.90;;;;;;5130134;28;20231;-86
2021/12/01 11:39:30;;;;;;;9.40;9.10;;;8.00;99.90;;;;;;5140805;27;20212;-89
2021/12/01 11:41:58;;;;;;;9.03;8.80;;;8.00;99.90;;;;;;5140396;27;20208;-87
2021/12/01 11:44:38;;;;;;;9.40;9.10;;;8.00;99.90;;;;;;5139196;27;20279;-86
2021/12/01 11:47:06;;;;;;;9.20;8.90;;;8.10;99.90;;;;;;5133841;28;20216;-86
2021/12/01 11:49:36;;;;;;;9.30;9.00;;;8.10;99.90;;;;;;5138468;27;20228;-87
2021/12/01 11:52:08;;;;;;;9.10;8.80;;;8.10;99.90;;;;;;5133408;28;20239;-86
2021/12/01 11:54:44;;;;;;;8.90;8.70;;;8.10;99.90;;;;;;5124673;28;20229;-85
2021/12/01 11:57:12;;;;;;;9.30;9.00;;;8.00;99.90;;;;;;5122177;28;20236;-86
2021/12/01 11:59:51;;;;;;;9.00;8.80;;;8.00;99.90;;;;;;5121783;28;20229;-85
2021/12/01 12:02:24;;;;;;;9.40;9.10;;;8.00;99.90;;;;;;5138840;22;20225;-82
2021/12/01 12:04:52;;;;;;;8.87;8.67;;;8.00;99.90;;;;;;5083705;28;20207;-83
2021/12/01 12:07:31;;;;;;;9.00;8.80;;;7.90;99.90;;;;;;5120938;28;20237;-82
2021/12/01 12:10:19;;;;;;;8.90;8.70;;;7.90;99.90;;;;;;5120768;27;20222;-83
2021/12/01 12:13:00;;;;;;;8.60;8.40;;;7.90;99.90;;;;;;5120777;27;20248;-84
2021/12/01 12:15:50;;;;;;;9.20;8.90;;;7.90;99.90;;;;;;5142503;27;20277;-85
2021/12/01 12:18:48;;;;;;;8.50;8.30;;;7.90;99.90;;;;;;5142188;27;20209;-82
2021/12/01 12:21:21;;;;;;;8.70;8.50;;;7.90;99.90;;;;;;5140951;27;20382;-81
2021/12/01 12:23:50;;;;;;;8.50;8.30;;;8.00;99.90;;;;;;5141468;27;20229;-82
2021/12/01 12:26:34;;;;;;;8.50;8.30;;;8.00;99.90;;;;;;5141389;28;20236;-81
2021/12/01 12:29:07;;;;;;;8.67;8.47;;;8.00;99.90;;;;;;5140610;27;20276;-82
2021/12/01 12:31:37;;;;;;;8.30;8.10;;;8.00;99.90;;;;;;5141165;27;20276;-81
2021/12/01 12:34:09;;;;;;;8.40;8.20;;;8.00;99.90;;;;;;5141308;27;20212;-81
2021/12/01 12:36:41;;;;;;;8.10;7.90;;;8.00;99.90;;;;;;5141225;27;20224;-82
2021/12/01 12:39:12;;;;;;;8.50;8.30;;;8.00;99.90;;;;;;5136495;27;20356;-82
2021/12/01 12:42:09;;;;;;;8.67;8.47;;;8.00;99.90;;;;;;5133301;28;20231;-80
2021/12/01 12:44:40;;;;;;;8.80;8.60;;;8.00;99.90;;;;;;5122733;28;20231;-80
2021/12/01 12:47:12;;;;;;;8.93;8.73;;;8.00;99.90;;;;;;5130170;28;20236;-81
2021/12/01 12:49:43;;;;;;;8.87;8.67;;;8.00;99.90;;;;;;5123919;27;20323;-81
2021/12/01 12:52:36;;;;;;;9.20;8.90;;;8.10;99.90;;;;;;5124153;28;20264;-82
2021/12/01 12:55:09;;;;;;;8.90;8.70;;;8.10;99.90;;;;;;5123116;28;20228;-82
2021/12/01 12:57:58;;;;;;;8.83;8.63;;;8.10;99.90;;;;;;5122750;27;20243;-82
2021/12/01 13:00:34;;;;;;;8.63;8.43;;;8.10;99.90;;;;;;5114552;28;20230;-81
2021/12/01 13:03:31;;;;;;;8.83;8.63;;;8.20;99.90;;;;;;5100828;28;20225;-81
2021/12/01 13:06:01;;;;;;;9.20;8.90;;;8.20;99.90;;;;;;5101083;28;20236;-81
2021/12/01 13:08:32;;;;;;;8.73;8.53;;;8.20;99.90;;;;;;5101493;28;20221;-82
2021/12/01 13:11:05;;;;;;;9.17;8.87;;;8.20;99.90;;;;;;5101132;28;20274;-82
2021/12/01 13:13:35;;;;;;;8.90;8.70;;;8.20;99.90;;;;;;5101666;28;20291;-82
2021/12/01 13:16:05;;;;;;;8.90;8.70;;;8.10;99.90;;;;;;5099695;28;20230;-82
2021/12/01 13:18:38;;;;;;;9.30;9.00;;;8.10;99.90;;;;;;5101842;28;20229;-82
2021/12/01 13:21:09;;;;;;;9.13;8.83;;;8.10;99.90;;;;;;5100167;28;20229;-83
2021/12/01 13:23:38;;;;;;;9.20;8.90;;;8.10;99.90;;;;;;5098048;28;20244;-82
2021/12/01 13:26:09;;;;;;;8.70;8.50;;;8.10;99.90;;;;;;5100272;28;20221;-81
2021/12/01 13:28:44;;;;;;;8.63;8.43;;;8.10;99.90;;;;;;5100676;28;20241;-81
2021/12/01 13:31:17;;;;;;;8.90;8.70;;;8.10;99.90;;;;;;5100434;28;20230;-81
2021/12/01 13:34:11;;;;;;;8.70;8.50;;;8.10;99.90;;;;;;5100836;28;20299;-81